Current Conditions
Foggy
Conditions



Pressure
30.16 (inHG) - 1021.32 (mb)
Visibility

9.9 (miles) - 16.0 (km)
   Temperature
66  °F
19°C
52  °F
Dewpoint
60  %
 Humidity
   Wind Speed
5  mph
4  kts
8  km/h
2.2  m/s
   Wind Direction
 230°
South West
   Airport Data
KSBA
Location Santa Barbara Municipal Airport 6 mi (9.65 km)
Metar :KSBA 281953Z 23004KT 10SM VCFG CLR 19/11 A3016 RMK AO2 SLP212 T01890106
Sun 28th November 11:53 am
   Raw Metar Info
Raw METAR is the most common format in the world for the transmission of observational weather data. It is highly standardized through the International Civil Aviation Organization (ICAO), which allows it to be understood throughout most of the world.
   API Info
Data Provided by
https://www.checkwx.com/weather/KSBA
   © Info
CSS/SVG/PHP scripts were developed by weather34.com for use in the weather34 template © 2015-2021

Guide Info provided by Metar-Wikipedia